Time;durP1;ratioP1;P1;durP2;ratioP2;P2;SDS_P1;SDS_P2;PMS_P1;PMS_P2;Temp;Humidity;BMP_temperature;BMP_pressure;BME280_temperature;BME280_humidity;BME280_pressure;Samples;Min_cycle;Max_cycle;Signal;HPM_P1;HPM_P2
2023/03/16 00:02:08;;;;;;;71.85;49.05;;;16.50;59.50;;;;;;4984886;28;86870;-48
2023/03/16 00:04:36;;;;;;;73.15;49.63;;;16.50;59.50;;;;;;4984799;28;88277;-47
2023/03/16 00:07:04;;;;;;;75.32;49.10;;;16.50;59.70;;;;;;4985554;28;89353;-47
2023/03/16 00:09:30;;;;;;;73.72;49.35;;;16.50;59.70;;;;;;4999231;28;88042;-48
2023/03/16 00:12:02;;;;;;;73.18;49.50;;;16.50;59.50;;;;;;4983484;27;85803;-48
2023/03/16 00:14:28;;;;;;;74.03;49.65;;;16.50;59.60;;;;;;4992609;27;85476;-49
2023/03/16 00:16:54;;;;;;;74.32;49.30;;;16.40;59.60;;;;;;4980219;28;86239;-49
2023/03/16 00:19:21;;;;;;;73.43;49.42;;;16.40;59.60;;;;;;4981804;28;86189;-47
2023/03/16 00:21:48;;;;;;;73.00;49.30;;;16.30;59.60;;;;;;4983877;28;86816;-49
2023/03/16 00:24:17;;;;;;;73.10;49.00;;;16.40;59.60;;;;;;4982392;28;86256;-47
2023/03/16 00:26:46;;;;;;;73.40;49.63;;;16.30;59.70;;;;;;4987685;28;86748;-47
2023/03/16 00:29:12;;;;;;;73.05;49.60;;;16.40;59.60;;;;;;4986227;28;86545;-48
2023/03/16 00:31:42;;;;;;;71.70;48.85;;;16.30;59.60;;;;;;4988696;28;86831;-47
2023/03/16 00:34:09;;;;;;;73.38;49.45;;;16.30;59.60;;;;;;4993882;28;86423;-47
2023/03/16 00:36:37;;;;;;;73.60;49.47;;;16.30;59.70;;;;;;4984618;28;90697;-48
2023/03/16 00:39:06;;;;;;;73.03;49.25;;;16.30;59.70;;;;;;4983047;28;86092;-48
2023/03/16 00:41:36;;;;;;;73.15;49.15;;;16.30;59.60;;;;;;4988448;28;85716;-49
2023/03/16 00:44:03;;;;;;;72.32;49.05;;;16.30;59.70;;;;;;4982666;28;85456;-48
2023/03/16 00:46:29;;;;;;;72.00;48.92;;;16.30;59.60;;;;;;4992372;28;87132;-47
2023/03/16 00:48:54;;;;;;;73.05;49.25;;;16.30;59.70;;;;;;4984469;28;90358;-46
2023/03/16 00:51:21;;;;;;;71.88;49.08;;;16.30;59.70;;;;;;4979549;28;86591;-49
2023/03/16 00:53:48;;;;;;;73.20;49.15;;;16.20;59.60;;;;;;4984228;28;88082;-47
2023/03/16 00:56:14;;;;;;;75.93;49.08;;;16.20;59.60;;;;;;4984631;28;92282;-45
2023/03/16 00:58:41;;;;;;;72.57;48.88;;;16.20;59.60;;;;;;4985730;28;85859;-46
2023/03/16 01:01:13;;;;;;;73.72;49.35;;;16.20;59.60;;;;;;4982145;28;86336;-47
2023/03/16 01:03:39;;;;;;;72.90;49.45;;;16.20;59.60;;;;;;4993155;28;86136;-46
2023/03/16 01:06:11;;;;;;;71.95;49.28;;;16.20;59.60;;;;;;4997374;28;87662;-49
2023/03/16 01:08:39;;;;;;;71.30;48.80;;;16.20;59.60;;;;;;4987545;28;86324;-51
2023/03/16 01:11:09;;;;;;;73.07;48.85;;;16.20;59.60;;;;;;4982066;28;87434;-49
2023/03/16 01:13:35;;;;;;;70.90;48.95;;;16.20;59.70;;;;;;4987800;28;89079;-46
2023/03/16 01:16:01;;;;;;;73.30;49.00;;;16.20;59.60;;;;;;4985072;28;85932;-48
2023/03/16 01:18:27;;;;;;;72.43;49.20;;;16.20;59.60;;;;;;4986113;28;89613;-48
2023/03/16 01:20:53;;;;;;;71.65;48.90;;;16.10;59.80;;;;;;4991710;28;86128;-48
2023/03/16 01:23:22;;;;;;;72.68;49.40;;;16.10;59.70;;;;;;4993228;28;86233;-52
2023/03/16 01:25:51;;;;;;;71.72;49.13;;;16.10;59.70;;;;;;4993059;28;85994;-48
2023/03/16 01:28:23;;;;;;;72.93;49.05;;;16.10;59.70;;;;;;4982045;28;88962;-50
2023/03/16 01:30:54;;;;;;;;;;;16.10;59.70;;;;;;4993909;28;87269;-49
2023/03/16 01:33:24;;;;;;;71.53;48.83;;;16.10;59.70;;;;;;4992820;28;84994;-50
2023/03/16 01:35:58;;;;;;;71.47;48.90;;;16.10;59.80;;;;;;4991814;28;90708;-50
2023/03/16 01:38:25;;;;;;;71.70;48.92;;;16.00;59.70;;;;;;4993690;28;90207;-47
2023/03/16 01:40:52;;;;;;;72.95;49.28;;;16.10;59.80;;;;;;4982068;28;87119;-48
2023/03/16 01:43:23;;;;;;;71.22;49.00;;;16.10;59.80;;;;;;4989897;28;86082;-50
2023/03/16 01:46:04;;;;;;;72.95;49.17;;;16.00;59.70;;;;;;4989301;28;86965;-52
2023/03/16 01:49:08;;;;;;;70.67;48.60;;;16.10;59.80;;;;;;4995823;28;85864;-48
2023/03/16 01:51:45;;;;;;;71.40;49.03;;;16.00;59.90;;;;;;4985606;28;86271;-51
2023/03/16 01:54:23;;;;;;;71.63;48.75;;;16.00;59.80;;;;;;4988791;28;87437;-48
2023/03/16 01:56:58;;;;;;;71.95;48.92;;;16.10;59.70;;;;;;4986524;28;89874;-49
2023/03/16 01:59:30;;;;;;;72.03;48.90;;;16.10;59.70;;;;;;4983927;28;85790;-48
2023/03/16 02:01:57;;;;;;;73.47;49.28;;;16.00;59.60;;;;;;4989126;28;93069;-50
2023/03/16 02:04:28;;;;;;;71.47;48.88;;;16.00;59.70;;;;;;4980191;28;86987;-49
2023/03/16 02:06:55;;;;;;;71.07;48.57;;;16.00;59.70;;;;;;4985949;28;88128;-47
2023/03/16 02:09:22;;;;;;;71.30;48.70;;;16.00;59.80;;;;;;4977886;28;86313;-48
2023/03/16 02:11:48;;;;;;;74.65;48.78;;;16.00;59.80;;;;;;4982511;28;86718;-47
2023/03/16 02:14:14;;;;;;;70.32;48.72;;;15.90;59.80;;;;;;4989163;28;86051;-48
2023/03/16 02:16:40;;;;;;;72.85;48.90;;;15.90;59.60;;;;;;4980511;28;85411;-47
2023/03/16 02:19:11;;;;;;;71.60;48.97;;;15.90;59.70;;;;;;4979524;28;85868;-46
2023/03/16 02:22:01;;;;;;;72.30;48.72;;;15.90;59.80;;;;;;4983302;28;85826;-48
2023/03/16 02:24:27;;;;;;;71.35;48.97;;;15.90;59.70;;;;;;4986229;28;85458;-49
2023/03/16 02:27:00;;;;;;;71.38;48.67;;;15.90;59.60;;;;;;4997357;28;85762;-47
2023/03/16 02:29:51;;;;;;;71.15;49.05;;;15.90;59.80;;;;;;4994037;28;86519;-49
2023/03/16 02:32:18;;;;;;;71.13;48.42;;;15.90;59.80;;;;;;4986683;28;85907;-50
2023/03/16 02:34:44;;;;;;;72.30;49.28;;;15.90;59.80;;;;;;4980085;28;89861;-48
2023/03/16 02:37:10;;;;;;;71.03;48.40;;;15.90;59.80;;;;;;4979988;28;85693;-47
2023/03/16 02:39:36;;;;;;;71.95;49.08;;;15.90;59.90;;;;;;4981536;28;86749;-48
2023/03/16 02:42:03;;;;;;;70.40;48.42;;;15.90;59.80;;;;;;4985789;28;87039;-51
2023/03/16 02:44:35;;;;;;;71.60;48.67;;;15.90;59.80;;;;;;4980088;28;87659;-51
2023/03/16 02:47:25;;;;;;;71.05;48.88;;;15.90;59.70;;;;;;4984687;28;86245;-51
2023/03/16 02:49:51;;;;;;;70.68;48.60;;;15.90;59.80;;;;;;4974609;28;92516;-49
2023/03/16 02:52:17;;;;;;;71.50;48.97;;;15.90;59.80;;;;;;4987232;28;86537;-49
2023/03/16 02:54:42;;;;;;;71.60;48.35;;;15.90;59.80;;;;;;4978065;28;85519;-47
2023/03/16 02:57:08;;;;;;;71.75;48.80;;;15.80;59.70;;;;;;4986354;28;86008;-51
2023/03/16 02:59:34;;;;;;;70.65;48.78;;;15.90;59.70;;;;;;4984790;28;87121;-49
2023/03/16 03:02:00;;;;;;;71.35;48.88;;;15.80;59.90;;;;;;4983855;28;86514;-51
2023/03/16 03:04:25;;;;;;;69.75;48.33;;;15.80;59.80;;;;;;4980004;28;87432;-48
2023/03/16 03:06:51;;;;;;;71.50;48.75;;;15.80;59.70;;;;;;4979582;28;86976;-48
2023/03/16 03:09:18;;;;;;;70.97;48.72;;;15.80;59.80;;;;;;4985810;28;88816;-51
2023/03/16 03:11:45;;;;;;;71.15;48.65;;;15.80;59.70;;;;;;4981515;28;91680;-49
2023/03/16 03:14:11;;;;;;;69.97;48.55;;;15.80;59.50;;;;;;4976192;28;89682;-46
2023/03/16 03:16:36;;;;;;;72.10;48.53;;;15.80;59.70;;;;;;4980259;28;86583;-48
2023/03/16 03:19:02;;;;;;;70.18;48.47;;;15.80;59.70;;;;;;4977722;28;90511;-47
2023/03/16 03:21:28;;;;;;;71.55;48.75;;;15.80;59.70;;;;;;4975286;28;91577;-48
2023/03/16 03:23:54;;;;;;;69.80;48.33;;;15.80;59.70;;;;;;4999544;28;85305;-51
2023/03/16 03:26:20;;;;;;;70.32;48.63;;;15.80;59.80;;;;;;4978700;28;86836;-46
2023/03/16 03:28:46;;;;;;;70.65;48.72;;;15.70;59.70;;;;;;4981391;28;86138;-51
2023/03/16 03:31:20;;;;;;;70.40;48.28;;;15.70;59.70;;;;;;4981751;28;87784;-47
2023/03/16 03:33:46;;;;;;;70.30;48.58;;;15.80;59.80;;;;;;4978594;28;88210;-48
2023/03/16 03:36:12;;;;;;;70.53;48.47;;;15.70;59.90;;;;;;4985998;27;92793;-48
2023/03/16 03:38:38;;;;;;;70.82;48.63;;;15.70;59.90;;;;;;4982443;28;86018;-49
2023/03/16 03:41:07;;;;;;;73.10;49.05;;;15.80;59.70;;;;;;4982453;28;87637;-47
2023/03/16 03:43:33;;;;;;;70.85;48.67;;;15.80;59.70;;;;;;4987619;28;88385;-48
2023/03/16 03:46:00;;;;;;;71.65;48.83;;;15.80;59.70;;;;;;4988788;28;87926;-47
2023/03/16 03:48:26;;;;;;;71.93;49.00;;;15.80;59.70;;;;;;4988490;28;87027;-50
2023/03/16 03:50:52;;;;;;;71.18;48.80;;;15.70;59.80;;;;;;4995477;28;86890;-49
2023/03/16 03:53:18;;;;;;;70.35;48.75;;;15.70;59.70;;;;;;4988754;28;86293;-50
2023/03/16 03:55:44;;;;;;;70.18;48.53;;;15.70;59.70;;;;;;4989388;28;86678;-48
2023/03/16 03:58:11;;;;;;;70.63;48.63;;;15.70;59.70;;;;;;4989235;28;86129;-49
2023/03/16 04:00:37;;;;;;;70.75;48.63;;;15.70;59.70;;;;;;4988033;28;86761;-50
2023/03/16 04:03:03;;;;;;;71.38;49.20;;;15.70;59.80;;;;;;4991402;28;86319;-46
2023/03/16 04:05:29;;;;;;;71.38;48.75;;;15.70;59.70;;;;;;4988006;28;88117;-46
2023/03/16 04:07:56;;;;;;;71.25;48.55;;;15.70;59.80;;;;;;4984206;28;87112;-46
2023/03/16 04:10:26;;;;;;;70.50;48.38;;;15.70;59.60;;;;;;4981995;28;86404;-46
2023/03/16 04:12:54;;;;;;;71.55;48.63;;;15.70;59.80;;;;;;4989130;28;88075;-47
2023/03/16 04:15:21;;;;;;;69.53;48.40;;;15.60;59.70;;;;;;4997268;28;89887;-50
2023/03/16 04:17:47;;;;;;;70.15;48.65;;;15.70;59.70;;;;;;4984458;27;87522;-49
2023/03/16 04:20:14;;;;;;;69.75;48.45;;;15.60;59.80;;;;;;5002789;28;86967;-47
2023/03/16 04:22:42;;;;;;;70.40;48.45;;;15.70;59.80;;;;;;4986527;28;85944;-49
2023/03/16 04:25:13;;;;;;;70.07;48.13;;;15.70;59.70;;;;;;4982253;28;88235;-45
2023/03/16 04:27:39;;;;;;;69.78;48.35;;;15.70;59.70;;;;;;4983661;28;86175;-47
2023/03/16 04:30:11;;;;;;;70.05;48.13;;;15.60;59.60;;;;;;4982847;28;86200;-46
2023/03/16 04:32:37;;;;;;;;;;;15.70;59.60;;;;;;4986743;28;86800;-47
2023/03/16 04:35:03;;;;;;;69.47;48.35;;;15.60;59.60;;;;;;4989404;28;85775;-49
2023/03/16 04:37:29;;;;;;;70.80;48.30;;;15.60;59.60;;;;;;4983080;28;91910;-48
2023/03/16 04:39:55;;;;;;;70.95;48.15;;;15.60;59.50;;;;;;4990553;28;88679;-48
2023/03/16 04:42:21;;;;;;;70.40;48.55;;;15.60;59.60;;;;;;4998679;28;88471;-47
2023/03/16 04:44:47;;;;;;;69.90;48.47;;;15.60;59.60;;;;;;4980549;28;87783;-52
2023/03/16 04:47:15;;;;;;;70.38;48.45;;;15.60;59.60;;;;;;4988809;28;88783;-47
2023/03/16 04:49:40;;;;;;;71.10;48.63;;;15.60;59.60;;;;;;4995181;28;86491;-47
2023/03/16 04:52:07;;;;;;;69.60;48.58;;;15.60;59.50;;;;;;4988969;28;85572;-48
2023/03/16 04:54:33;;;;;;;69.32;48.35;;;15.60;59.50;;;;;;4982574;28;87178;-51
2023/03/16 04:56:59;;;;;;;71.40;48.78;;;15.60;59.50;;;;;;4991751;28;88715;-49
2023/03/16 04:59:26;;;;;;;70.65;48.67;;;15.60;59.50;;;;;;4990387;28;86252;-47
2023/03/16 05:01:52;;;;;;;70.10;48.65;;;15.60;59.50;;;;;;4977459;28;86376;-49
2023/03/16 05:04:18;;;;;;;69.93;48.50;;;15.60;59.40;;;;;;4982470;28;86907;-46
2023/03/16 05:06:44;;;;;;;70.35;48.35;;;15.60;59.40;;;;;;4981089;28;86224;-48
2023/03/16 05:09:10;;;;;;;69.80;48.42;;;15.60;59.30;;;;;;4988881;28;91026;-48
2023/03/16 05:11:36;;;;;;;70.32;48.72;;;15.60;59.20;;;;;;4984505;28;90614;-47
2023/03/16 05:14:02;;;;;;;69.50;48.15;;;15.60;59.30;;;;;;4986990;28;86049;-49
2023/03/16 05:16:29;;;;;;;70.15;48.00;;;15.60;59.30;;;;;;4997950;28;87425;-47
2023/03/16 05:18:57;;;;;;;70.75;48.55;;;15.60;59.20;;;;;;4985827;28;87129;-49
2023/03/16 05:21:23;;;;;;;71.00;48.90;;;15.60;59.30;;;;;;4981084;28;90021;-50
2023/03/16 05:23:49;;;;;;;70.82;48.20;;;15.60;59.20;;;;;;4982905;28;91844;-49
2023/03/16 05:26:15;;;;;;;71.25;48.90;;;15.60;59.20;;;;;;4985824;28;87247;-49
2023/03/16 05:28:41;;;;;;;72.15;48.67;;;15.60;59.30;;;;;;4984857;28;87687;-47
2023/03/16 05:31:07;;;;;;;69.40;48.22;;;15.60;59.20;;;;;;4977615;28;88695;-50
2023/03/16 05:33:33;;;;;;;70.30;48.65;;;15.60;59.10;;;;;;4983234;28;86124;-49
2023/03/16 05:35:59;;;;;;;71.60;48.65;;;15.50;59.30;;;;;;4992168;28;86830;-49
2023/03/16 05:38:26;;;;;;;70.85;48.38;;;15.50;59.20;;;;;;4978775;28;89122;-50
2023/03/16 05:40:53;;;;;;;69.80;48.17;;;15.50;59.20;;;;;;4973085;28;92056;-50
2023/03/16 05:43:20;;;;;;;73.97;48.72;;;15.50;59.20;;;;;;4984367;28;85575;-47
2023/03/16 05:45:46;;;;;;;71.47;48.55;;;15.50;59.20;;;;;;4985735;28;87893;-49
2023/03/16 05:48:13;;;;;;;68.57;48.25;;;15.50;59.40;;;;;;4992409;28;87241;-46
2023/03/16 05:50:40;;;;;;;69.25;48.08;;;15.40;59.30;;;;;;4974602;28;87401;-49
2023/03/16 05:53:06;;;;;;;72.32;48.85;;;15.40;59.20;;;;;;4980175;28;87133;-49
2023/03/16 05:55:32;;;;;;;70.32;48.53;;;15.50;59.10;;;;;;4979255;28;88415;-46
2023/03/16 05:57:58;;;;;;;70.30;48.55;;;15.50;59.00;;;;;;4980835;28;86517;-49
2023/03/16 06:00:24;;;;;;;77.18;48.95;;;15.40;59.10;;;;;;4983298;28;88619;-49
2023/03/16 06:02:51;;;;;;;75.88;48.53;;;15.50;58.80;;;;;;4982184;28;85936;-49
2023/03/16 06:05:19;;;;;;;73.53;48.78;;;15.60;58.70;;;;;;4978922;28;88479;-49
2023/03/16 06:07:44;;;;;;;78.50;49.25;;;15.70;58.60;;;;;;4979142;28;87517;-49
2023/03/16 06:10:11;;;;;;;78.78;49.55;;;15.70;58.80;;;;;;4990743;28;85413;-46
2023/03/16 06:12:37;;;;;;;74.20;48.95;;;15.60;58.70;;;;;;4982743;28;85834;-48
2023/03/16 06:15:08;;;;;;;75.53;48.95;;;15.60;58.90;;;;;;4985110;28;88972;-48
2023/03/16 06:17:35;;;;;;;75.68;48.88;;;15.60;58.90;;;;;;4972593;28;86786;-48
2023/03/16 06:20:01;;;;;;;78.32;49.45;;;15.60;59.00;;;;;;4991488;28;86125;-47
2023/03/16 06:22:26;;;;;;;78.78;49.17;;;15.70;58.60;;;;;;4976203;28;87247;-49
2023/03/16 06:24:52;;;;;;;80.25;49.40;;;15.70;58.70;;;;;;4978673;28;87325;-50
2023/03/16 06:27:19;;;;;;;78.97;49.30;;;15.80;58.60;;;;;;4981778;28;90248;-48
2023/03/16 06:29:46;;;;;;;81.60;50.03;;;15.80;58.50;;;;;;4982699;28;87159;-48
2023/03/16 06:32:12;;;;;;;78.20;49.35;;;15.70;58.60;;;;;;4982504;28;87555;-50
2023/03/16 06:34:38;;;;;;;79.50;48.90;;;15.80;58.50;;;;;;4980269;28;91816;-48
2023/03/16 06:37:04;;;;;;;76.70;48.95;;;15.70;58.40;;;;;;4986570;28;86496;-49
2023/03/16 06:39:30;;;;;;;77.47;49.45;;;15.80;58.10;;;;;;4980520;28;86263;-49
2023/03/16 06:41:56;;;;;;;76.00;48.92;;;15.80;58.10;;;;;;4987940;28;89672;-47
2023/03/16 06:44:22;;;;;;;82.00;49.67;;;15.80;58.20;;;;;;4984547;28;88039;-49
2023/03/16 06:46:48;;;;;;;79.45;49.30;;;15.70;58.30;;;;;;4969366;28;86097;-48
2023/03/16 06:49:13;;;;;;;77.28;49.40;;;15.80;58.30;;;;;;4969439;28;89609;-49
2023/03/16 06:51:40;;;;;;;75.13;49.28;;;15.90;58.60;;;;;;4987300;28;87279;-45
2023/03/16 06:54:06;;;;;;;80.57;49.47;;;16.20;58.60;;;;;;4971946;28;90366;-46
2023/03/16 06:56:33;;;;;;;77.75;49.28;;;16.30;57.90;;;;;;4977613;28;86119;-46
2023/03/16 06:58:58;;;;;;;78.22;49.72;;;16.50;57.10;;;;;;4979541;28;87514;-46
2023/03/16 07:01:24;;;;;;;77.05;49.53;;;16.60;56.50;;;;;;4978911;28;86264;-45
2023/03/16 07:03:50;;;;;;;75.40;49.72;;;16.60;56.70;;;;;;4981393;28;86785;-48
2023/03/16 07:06:16;;;;;;;77.88;49.35;;;16.70;56.60;;;;;;4985184;28;87389;-51
2023/03/16 07:08:42;;;;;;;76.45;49.53;;;16.80;56.40;;;;;;4987446;28;88011;-49
2023/03/16 07:11:08;;;;;;;80.00;49.70;;;16.80;56.50;;;;;;4971646;28;89127;-47
2023/03/16 07:13:34;;;;;;;79.53;49.08;;;16.80;56.70;;;;;;4990032;28;87690;-45
2023/03/16 07:16:01;;;;;;;80.05;49.65;;;16.90;56.80;;;;;;4978741;28;88780;-45
2023/03/16 07:18:26;;;;;;;76.55;49.58;;;16.90;56.90;;;;;;4986900;28;87248;-45
2023/03/16 07:20:53;;;;;;;73.28;49.35;;;16.90;56.60;;;;;;4985490;28;86044;-46
2023/03/16 07:23:19;;;;;;;76.03;49.05;;;16.90;56.50;;;;;;4987987;28;87554;-44
2023/03/16 07:25:45;;;;;;;75.03;49.42;;;16.90;56.40;;;;;;4980539;28;89040;-45
2023/03/16 07:28:11;;;;;;;76.22;49.00;;;17.00;56.30;;;;;;4988901;28;86407;-44
2023/03/16 07:30:37;;;;;;;82.20;50.08;;;17.00;56.00;;;;;;4984702;28;86831;-49
2023/03/16 07:33:04;;;;;;;83.32;49.65;;;16.90;56.20;;;;;;4987362;28;86849;-49
2023/03/16 07:35:30;;;;;;;73.88;49.28;;;16.70;56.50;;;;;;4980576;28;89046;-49
2023/03/16 07:37:56;;;;;;;76.40;49.72;;;16.60;56.70;;;;;;4989951;28;95717;-47
2023/03/16 07:40:22;;;;;;;76.88;49.85;;;16.80;56.50;;;;;;4991135;28;90775;-45
2023/03/16 07:42:48;;;;;;;78.63;49.47;;;16.90;56.20;;;;;;5001693;28;86955;-47
2023/03/16 07:45:16;;;;;;;79.25;50.15;;;17.00;55.80;;;;;;4982819;28;87132;-47
2023/03/16 07:47:42;;;;;;;79.80;49.80;;;17.10;55.70;;;;;;4986425;28;86907;-49
2023/03/16 07:50:10;;;;;;;73.15;49.15;;;17.10;55.40;;;;;;4989606;28;87066;-50
2023/03/16 07:52:36;;;;;;;76.45;49.53;;;17.20;55.20;;;;;;4988060;28;86381;-48
2023/03/16 07:55:02;;;;;;;78.45;49.53;;;17.30;54.90;;;;;;4978482;28;88077;-52
2023/03/16 07:57:28;;;;;;;77.55;49.85;;;17.30;54.70;;;;;;4982872;28;86281;-46
2023/03/16 07:59:54;;;;;;;76.55;49.58;;;17.40;54.60;;;;;;4983427;28;87522;-46
2023/03/16 08:02:20;;;;;;;78.70;49.53;;;17.40;54.50;;;;;;4984087;28;87420;-46
2023/03/16 08:04:46;;;;;;;79.80;49.53;;;17.40;54.50;;;;;;4991558;28;86547;-47
2023/03/16 08:07:14;;;;;;;77.57;49.45;;;17.40;54.30;;;;;;4986604;28;86208;-46
2023/03/16 08:09:40;;;;;;;76.13;49.80;;;17.40;54.20;;;;;;4988764;28;88663;-48
2023/03/16 08:12:07;;;;;;;78.72;49.63;;;17.50;54.00;;;;;;4978454;28;89591;-46
2023/03/16 08:14:33;;;;;;;77.68;49.58;;;17.50;53.90;;;;;;4989920;28;86672;-47
2023/03/16 08:17:00;;;;;;;77.43;50.33;;;17.60;53.60;;;;;;4982424;28;86208;-50
2023/03/16 08:19:26;;;;;;;75.75;49.92;;;17.50;53.80;;;;;;4988162;28;86570;-46
2023/03/16 08:21:52;;;;;;;78.57;49.72;;;17.50;54.50;;;;;;4984710;28;87617;-49
2023/03/16 08:24:18;;;;;;;77.90;50.08;;;17.50;53.70;;;;;;4992788;28;92118;-45
2023/03/16 08:26:44;;;;;;;77.38;49.55;;;17.70;53.50;;;;;;4983508;28;88812;-50
2023/03/16 08:29:09;;;;;;;78.13;50.10;;;17.60;53.40;;;;;;4983996;28;87323;-48
2023/03/16 08:31:36;;;;;;;77.65;49.95;;;17.50;53.70;;;;;;4988004;28;87084;-47
2023/03/16 08:34:02;;;;;;;74.57;49.72;;;17.30;53.80;;;;;;4976650;28;86678;-44
2023/03/16 08:36:29;;;;;;;73.22;49.17;;;17.40;53.90;;;;;;4991043;28;87087;-45
2023/03/16 08:38:55;;;;;;;75.47;49.90;;;17.50;54.00;;;;;;4987039;28;85705;-48
2023/03/16 08:41:21;;;;;;;74.97;49.85;;;17.70;53.50;;;;;;4986376;28;86965;-49
2023/03/16 08:43:47;;;;;;;77.53;49.53;;;17.60;53.70;;;;;;4988905;28;86451;-45
2023/03/16 08:46:14;;;;;;;79.13;50.78;;;17.60;53.90;;;;;;4985616;27;85599;-48
2023/03/16 08:48:40;;;;;;;78.38;50.55;;;17.70;54.40;;;;;;4987253;28;88206;-46
2023/03/16 08:51:07;;;;;;;80.13;51.17;;;17.80;54.60;;;;;;4984610;28;86986;-45
2023/03/16 08:53:34;;;;;;;81.57;51.25;;;17.70;55.10;;;;;;4981970;28;86986;-44
2023/03/16 08:56:08;;;;;;;79.93;51.10;;;17.80;54.80;;;;;;4982804;28;88551;-51
2023/03/16 08:58:34;;;;;;;76.03;50.65;;;17.80;54.70;;;;;;4978567;28;91874;-47
2023/03/16 09:01:01;;;;;;;81.00;50.47;;;17.80;54.70;;;;;;4994288;28;86697;-44
2023/03/16 09:03:27;;;;;;;74.78;50.17;;;17.70;54.90;;;;;;4981640;28;89746;-47
2023/03/16 09:05:59;;;;;;;77.85;50.63;;;17.80;55.00;;;;;;4991746;28;86039;-43
2023/03/16 09:08:24;;;;;;;76.15;50.45;;;17.90;54.90;;;;;;4984501;28;88769;-47
2023/03/16 09:10:59;;;;;;;76.28;50.85;;;17.90;54.90;;;;;;4982365;28;86934;-50
2023/03/16 09:13:24;;;;;;;76.32;50.53;;;18.00;55.00;;;;;;4958409;28;88249;-50
2023/03/16 09:15:50;;;;;;;76.00;50.55;;;18.00;55.10;;;;;;4956840;28;91848;-48
2023/03/16 09:18:17;;;;;;;75.88;50.13;;;17.90;55.10;;;;;;4984478;28;87277;-49
2023/03/16 09:20:45;;;;;;;76.15;50.33;;;17.90;55.20;;;;;;4995301;28;86885;-46
2023/03/16 09:23:12;;;;;;;78.20;50.55;;;18.00;55.20;;;;;;4975538;28;88637;-51
2023/03/16 09:25:38;;;;;;;76.13;50.13;;;18.00;55.40;;;;;;4979340;28;86509;-49
2023/03/16 09:28:04;;;;;;;75.05;49.85;;;18.00;55.50;;;;;;4982742;28;86775;-50
2023/03/16 09:30:31;;;;;;;74.95;50.58;;;18.00;55.50;;;;;;4976888;28;88647;-48
2023/03/16 09:32:57;;;;;;;75.35;50.17;;;18.00;55.40;;;;;;4986096;27;85794;-45
2023/03/16 09:35:22;;;;;;;77.95;50.63;;;18.00;55.50;;;;;;4992459;28;87910;-47
2023/03/16 09:37:49;;;;;;;76.32;50.22;;;18.10;55.60;;;;;;4980578;28;89094;-45
2023/03/16 09:40:35;;;;;;;74.78;49.90;;;18.10;55.50;;;;;;4987483;28;86504;-47
2023/03/16 09:43:22;;;;;;;75.90;50.42;;;18.10;55.60;;;;;;4981314;28;85793;-44
2023/03/16 09:46:12;;;;;;;75.80;50.03;;;18.10;55.70;;;;;;4974006;28;86635;-47
2023/03/16 09:48:39;;;;;;;78.10;50.30;;;18.20;55.60;;;;;;4984109;28;90777;-44
2023/03/16 09:51:15;;;;;;;76.55;50.38;;;18.20;55.50;;;;;;4977460;28;87620;-49
2023/03/16 09:53:40;;;;;;;76.88;50.45;;;18.20;55.70;;;;;;4978571;28;86073;-47
2023/03/16 09:56:15;;;;;;;76.22;50.03;;;18.20;55.60;;;;;;4988185;28;87129;-49
2023/03/16 09:58:41;;;;;;;76.07;50.42;;;18.20;55.40;;;;;;4988424;27;86983;-44
2023/03/16 10:01:23;;;;;;;76.03;50.13;;;18.20;55.60;;;;;;4984787;28;89483;-43
2023/03/16 10:04:07;;;;;;;77.80;50.20;;;18.20;55.70;;;;;;4995513;28;85913;-45
2023/03/16 10:06:37;;;;;;;75.68;49.90;;;18.30;55.70;;;;;;4983230;28;86294;-46
2023/03/16 10:09:32;;;;;;;78.72;50.25;;;18.40;55.70;;;;;;4982391;28;86151;-48
2023/03/16 10:12:01;;;;;;;75.95;50.13;;;18.40;55.80;;;;;;4986996;28;86781;-46
2023/03/16 10:14:51;;;;;;;78.28;50.35;;;18.40;55.80;;;;;;4975538;28;88892;-47
2023/03/16 10:17:32;;;;;;;77.50;50.22;;;18.50;55.70;;;;;;4982402;28;86297;-46
2023/03/16 10:20:07;;;;;;;75.77;50.00;;;18.50;55.50;;;;;;4982042;28;86314;-46
2023/03/16 10:22:38;;;;;;;76.60;50.28;;;18.50;55.50;;;;;;4983414;28;87908;-47
2023/03/16 10:25:39;;;;;;;76.93;50.40;;;18.60;55.60;;;;;;4987446;28;86830;-48
2023/03/16 10:28:05;;;;;;;77.22;50.42;;;18.60;55.30;;;;;;4983198;28;89013;-47
2023/03/16 10:30:34;;;;;;;76.80;50.40;;;18.60;55.30;;;;;;4979615;28;91294;-47
2023/03/16 10:33:02;;;;;;;79.15;50.28;;;18.70;55.20;;;;;;4988778;28;86893;-47
2023/03/16 10:35:44;;;;;;;77.70;50.47;;;18.70;55.20;;;;;;4973604;28;86828;-53
2023/03/16 10:38:38;;;;;;;77.72;50.70;;;18.80;55.20;;;;;;4987639;28;85269;-46
2023/03/16 10:41:20;;;;;;;77.65;50.83;;;18.80;55.00;;;;;;4985740;28;86683;-49
2023/03/16 10:43:50;;;;;;;77.43;50.40;;;18.80;54.90;;;;;;4986895;28;87839;-46
2023/03/16 10:46:16;;;;;;;76.55;50.35;;;18.80;54.80;;;;;;4998748;28;86875;-49
2023/03/16 10:48:49;;;;;;;76.13;50.65;;;18.90;54.90;;;;;;4990870;28;85865;-49
2023/03/16 10:51:19;;;;;;;76.57;50.17;;;18.90;54.70;;;;;;4980117;28;88493;-47
2023/03/16 10:53:44;;;;;;;77.72;50.55;;;18.90;54.70;;;;;;4980365;28;87821;-46
2023/03/16 10:56:19;;;;;;;78.80;50.40;;;18.90;54.50;;;;;;4985194;28;87640;-45
2023/03/16 10:58:45;;;;;;;80.22;50.63;;;18.90;54.40;;;;;;4978892;28;87181;-46
2023/03/16 11:01:19;;;;;;;79.25;50.78;;;18.90;55.00;;;;;;5001242;28;88263;-50
2023/03/16 11:03:54;;;;;;;81.18;50.85;;;18.90;55.30;;;;;;4981828;28;90514;-49
2023/03/16 11:06:31;;;;;;;77.40;50.35;;;18.90;55.30;;;;;;4989149;28;86235;-48
2023/03/16 11:09:13;;;;;;;78.25;50.55;;;18.90;55.20;;;;;;4987075;28;88589;-51
2023/03/16 11:11:45;;;;;;;80.30;51.03;;;18.90;55.20;;;;;;4971823;27;88895;-49
2023/03/16 11:14:14;;;;;;;81.15;50.97;;;18.90;55.10;;;;;;4984236;28;90994;-48
2023/03/16 11:16:46;;;;;;;82.38;50.97;;;18.90;55.10;;;;;;4987682;28;86429;-45
2023/03/16 11:19:24;;;;;;;82.35;51.42;;;19.00;55.20;;;;;;4988952;28;86295;-45
2023/03/16 11:22:10;;;;;;;78.93;50.58;;;19.00;55.20;;;;;;4985187;27;92058;-44
2023/03/16 11:24:48;;;;;;;82.65;51.05;;;19.00;55.10;;;;;;4989230;28;86724;-44
2023/03/16 11:27:20;;;;;;;79.05;50.78;;;19.00;55.00;;;;;;4992791;28;91137;-43
2023/03/16 11:30:10;;;;;;;81.97;51.10;;;19.00;55.10;;;;;;4979595;28;87066;-44
2023/03/16 11:32:39;;;;;;;79.28;51.03;;;19.10;55.20;;;;;;4976695;28;92226;-47
2023/03/16 11:35:22;;;;;;;81.50;51.20;;;19.10;55.30;;;;;;4984194;28;92350;-47
2023/03/16 11:38:13;;;;;;;78.43;50.72;;;19.10;55.20;;;;;;4990117;28;91167;-49
2023/03/16 11:41:40;;;;;;;79.18;51.10;;;19.10;55.20;;;;;;4984318;28;90605;-45
2023/03/16 11:44:22;;;;;;;81.13;50.70;;;19.20;55.30;;;;;;4946105;28;94128;-44
2023/03/16 11:47:14;;;;;;;80.35;51.05;;;19.20;55.30;;;;;;4973882;28;92620;-53
2023/03/16 11:50:08;;;;;;;78.00;50.60;;;19.20;55.00;;;;;;4976101;28;95967;-50
2023/03/16 11:53:07;;;;;;;78.25;50.72;;;19.10;54.60;;;;;;4995484;28;92406;-52
2023/03/16 11:55:51;;;;;;;79.15;51.08;;;19.10;54.30;;;;;;4985645;28;93439;-48
2023/03/16 11:58:37;;;;;;;79.80;50.95;;;19.10;54.00;;;;;;4988799;28;91149;-48
2023/03/16 12:01:32;;;;;;;77.32;50.78;;;19.10;53.90;;;;;;4988669;27;90070;-52
2023/03/16 12:04:19;;;;;;;77.85;51.10;;;19.10;53.70;;;;;;4993429;27;89480;-50
2023/03/16 12:07:23;;;;;;;81.55;50.97;;;19.10;53.80;;;;;;4979838;28;91243;-50
2023/03/16 12:09:58;;;;;;;77.78;50.58;;;19.10;53.60;;;;;;4981665;28;91285;-51
2023/03/16 12:12:28;;;;;;;82.93;51.03;;;19.10;53.90;;;;;;4980666;28;91203;-50
2023/03/16 12:15:07;;;;;;;81.63;51.22;;;19.10;53.50;;;;;;4981687;28;90072;-46
2023/03/16 12:17:36;;;;;;;79.30;51.05;;;19.20;53.80;;;;;;4987240;28;91403;-48
2023/03/16 12:20:25;;;;;;;82.85;51.10;;;19.20;53.60;;;;;;4978016;28;91351;-49
2023/03/16 12:23:03;;;;;;;79.70;51.00;;;19.10;53.30;;;;;;4981567;28;91387;-46
2023/03/16 12:25:33;;;;;;;77.85;50.60;;;19.20;53.20;;;;;;4987040;28;90858;-50
2023/03/16 12:28:04;;;;;;;78.80;50.35;;;19.20;53.20;;;;;;4983238;28;89874;-48
2023/03/16 12:30:48;;;;;;;80.10;51.00;;;19.10;53.10;;;;;;4978759;28;90980;-49
2023/03/16 12:33:46;;;;;;;78.47;50.55;;;19.20;53.10;;;;;;4984686;28;90501;-47
2023/03/16 12:36:18;;;;;;;83.88;50.65;;;19.20;53.10;;;;;;4982973;28;91039;-48
2023/03/16 12:39:06;;;;;;;79.10;50.58;;;19.20;53.10;;;;;;4982318;28;95947;-48
2023/03/16 12:41:50;;;;;;;79.25;50.85;;;19.20;53.10;;;;;;4982531;28;95858;-49
2023/03/16 12:44:25;;;;;;;81.10;50.70;;;19.30;53.10;;;;;;4983738;28;91807;-49